sensor_id;sensor_type;location;lat;lon;timestamp;temperature;humidity
78455;SHT31;67751;51.986;5.696;2023-08-12T00:01:42;22.8;75.4
78455;SHT31;67751;51.986;5.696;2023-08-12T00:04:12;22.8;75.5
78455;SHT31;67751;51.986;5.696;2023-08-12T00:06:43;22.8;75.5
78455;SHT31;67751;51.986;5.696;2023-08-12T00:09:13;22.8;75.6
78455;SHT31;67751;51.986;5.696;2023-08-12T00:11:45;22.7;75.7
78455;SHT31;67751;51.986;5.696;2023-08-12T00:14:14;22.7;75.7
78455;SHT31;67751;51.986;5.696;2023-08-12T00:16:44;22.7;75.6
78455;SHT31;67751;51.986;5.696;2023-08-12T00:19:13;22.7;75.7
78455;SHT31;67751;51.986;5.696;2023-08-12T00:21:43;22.7;75.7
78455;SHT31;67751;51.986;5.696;2023-08-12T00:24:13;22.7;75.7
78455;SHT31;67751;51.986;5.696;2023-08-12T00:26:44;22.7;75.8
78455;SHT31;67751;51.986;5.696;2023-08-12T00:29:13;22.7;75.6
78455;SHT31;67751;51.986;5.696;2023-08-12T00:31:43;22.7;75.7
78455;SHT31;67751;51.986;5.696;2023-08-12T00:34:12;22.7;75.6
78455;SHT31;67751;51.986;5.696;2023-08-12T00:36:42;22.7;75.5
78455;SHT31;67751;51.986;5.696;2023-08-12T00:39:11;22.7;75.8
78455;SHT31;67751;51.986;5.696;2023-08-12T00:41:41;22.7;75.7
78455;SHT31;67751;51.986;5.696;2023-08-12T00:44:13;22.7;75.5
78455;SHT31;67751;51.986;5.696;2023-08-12T00:46:43;22.7;75.8
78455;SHT31;67751;51.986;5.696;2023-08-12T00:49:13;22.7;75.8
78455;SHT31;67751;51.986;5.696;2023-08-12T00:51:44;22.7;75.8
78455;SHT31;67751;51.986;5.696;2023-08-12T00:54:16;22.7;75.7
78455;SHT31;67751;51.986;5.696;2023-08-12T00:56:48;22.7;75.7
78455;SHT31;67751;51.986;5.696;2023-08-12T00:59:20;22.7;75.6
78455;SHT31;67751;51.986;5.696;2023-08-12T01:01:50;22.7;75.8
78455;SHT31;67751;51.986;5.696;2023-08-12T01:04:20;22.6;75.9
78455;SHT31;67751;51.986;5.696;2023-08-12T01:06:50;22.6;75.9
78455;SHT31;67751;51.986;5.696;2023-08-12T01:09:19;22.6;75.9
78455;SHT31;67751;51.986;5.696;2023-08-12T01:11:53;22.6;75.9
78455;SHT31;67751;51.986;5.696;2023-08-12T01:14:28;22.6;75.8
78455;SHT31;67751;51.986;5.696;2023-08-12T01:17:01;22.6;75.9
78455;SHT31;67751;51.986;5.696;2023-08-12T01:19:35;22.6;75.9
78455;SHT31;67751;51.986;5.696;2023-08-12T01:22:09;22.6;76.0
78455;SHT31;67751;51.986;5.696;2023-08-12T01:24:40;22.6;76.0
78455;SHT31;67751;51.986;5.696;2023-08-12T01:27:10;22.6;76.0
78455;SHT31;67751;51.986;5.696;2023-08-12T01:29:42;22.6;75.9
78455;SHT31;67751;51.986;5.696;2023-08-12T01:32:19;22.6;75.9
78455;SHT31;67751;51.986;5.696;2023-08-12T01:35:00;22.6;75.8
78455;SHT31;67751;51.986;5.696;2023-08-12T01:37:33;22.6;75.9
78455;SHT31;67751;51.986;5.696;2023-08-12T01:40:05;22.6;75.9
78455;SHT31;67751;51.986;5.696;2023-08-12T01:42:39;22.5;76.0
78455;SHT31;67751;51.986;5.696;2023-08-12T01:45:09;22.5;76.1
78455;SHT31;67751;51.986;5.696;2023-08-12T01:47:43;22.5;76.2
78455;SHT31;67751;51.986;5.696;2023-08-12T01:50:12;22.5;76.3
78455;SHT31;67751;51.986;5.696;2023-08-12T01:52:42;22.5;76.3
78455;SHT31;67751;51.986;5.696;2023-08-12T01:55:12;22.5;76.3
78455;SHT31;67751;51.986;5.696;2023-08-12T01:57:42;22.5;76.4
78455;SHT31;67751;51.986;5.696;2023-08-12T02:00:12;22.5;76.5
78455;SHT31;67751;51.986;5.696;2023-08-12T02:02:41;22.5;76.5
78455;SHT31;67751;51.986;5.696;2023-08-12T02:05:14;22.5;76.6
78455;SHT31;67751;51.986;5.696;2023-08-12T02:07:43;22.5;76.8
78455;SHT31;67751;51.986;5.696;2023-08-12T02:10:13;22.5;76.8
78455;SHT31;67751;51.986;5.696;2023-08-12T02:12:44;22.5;76.8
78455;SHT31;67751;51.986;5.696;2023-08-12T02:15:13;22.4;76.9
78455;SHT31;67751;51.986;5.696;2023-08-12T02:17:43;22.4;77.0
78455;SHT31;67751;51.986;5.696;2023-08-12T02:20:13;22.4;77.0
78455;SHT31;67751;51.986;5.696;2023-08-12T02:22:42;22.4;77.0
78455;SHT31;67751;51.986;5.696;2023-08-12T02:25:12;22.4;77.1
78455;SHT31;67751;51.986;5.696;2023-08-12T02:27:41;22.4;77.0
78455;SHT31;67751;51.986;5.696;2023-08-12T02:30:12;22.4;77.2
78455;SHT31;67751;51.986;5.696;2023-08-12T02:32:42;22.4;77.2
78455;SHT31;67751;51.986;5.696;2023-08-12T02:35:16;22.4;77.1
78455;SHT31;67751;51.986;5.696;2023-08-12T02:37:47;22.4;77.4
78455;SHT31;67751;51.986;5.696;2023-08-12T02:40:17;22.4;77.4
78455;SHT31;67751;51.986;5.696;2023-08-12T02:42:47;22.4;77.4
78455;SHT31;67751;51.986;5.696;2023-08-12T02:45:16;22.4;77.3
78455;SHT31;67751;51.986;5.696;2023-08-12T02:47:46;22.4;77.5
78455;SHT31;67751;51.986;5.696;2023-08-12T02:50:16;22.4;77.5
78455;SHT31;67751;51.986;5.696;2023-08-12T02:52:46;22.5;77.5
78455;SHT31;67751;51.986;5.696;2023-08-12T02:55:15;22.5;77.6
78455;SHT31;67751;51.986;5.696;2023-08-12T02:57:45;22.5;77.5
78455;SHT31;67751;51.986;5.696;2023-08-12T03:00:18;22.5;77.7
78455;SHT31;67751;51.986;5.696;2023-08-12T03:02:49;22.5;77.7
78455;SHT31;67751;51.986;5.696;2023-08-12T03:05:19;22.4;77.7
78455;SHT31;67751;51.986;5.696;2023-08-12T03:07:49;22.4;77.7
78455;SHT31;67751;51.986;5.696;2023-08-12T03:10:19;22.4;77.9
78455;SHT31;67751;51.986;5.696;2023-08-12T03:12:49;22.4;77.9
78455;SHT31;67751;51.986;5.696;2023-08-12T03:15:19;22.4;77.9
78455;SHT31;67751;51.986;5.696;2023-08-12T03:17:48;22.4;78.0
78455;SHT31;67751;51.986;5.696;2023-08-12T03:20:18;22.4;77.9
78455;SHT31;67751;51.986;5.696;2023-08-12T03:22:48;22.4;78.1
78455;SHT31;67751;51.986;5.696;2023-08-12T03:25:18;22.4;78.0
78455;SHT31;67751;51.986;5.696;2023-08-12T03:27:47;22.4;77.9
78455;SHT31;67751;51.986;5.696;2023-08-12T03:30:17;22.4;77.9
78455;SHT31;67751;51.986;5.696;2023-08-12T03:32:47;22.4;77.9
78455;SHT31;67751;51.986;5.696;2023-08-12T03:35:16;22.4;77.8
78455;SHT31;67751;51.986;5.696;2023-08-12T03:37:46;22.4;77.9
78455;SHT31;67751;51.986;5.696;2023-08-12T03:40:16;22.4;77.9
78455;SHT31;67751;51.986;5.696;2023-08-12T03:42:45;22.4;77.9
78455;SHT31;67751;51.986;5.696;2023-08-12T03:45:15;22.4;77.9
78455;SHT31;67751;51.986;5.696;2023-08-12T03:47:44;22.4;77.9
78455;SHT31;67751;51.986;5.696;2023-08-12T03:50:14;22.4;77.9
78455;SHT31;67751;51.986;5.696;2023-08-12T03:52:43;22.4;77.9
78455;SHT31;67751;51.986;5.696;2023-08-12T03:55:13;22.4;77.9
78455;SHT31;67751;51.986;5.696;2023-08-12T03:57:45;22.4;78.1
78455;SHT31;67751;51.986;5.696;2023-08-12T04:00:15;22.4;78.1
78455;SHT31;67751;51.986;5.696;2023-08-12T04:02:44;22.4;78.1
78455;SHT31;67751;51.986;5.696;2023-08-12T04:05:14;22.4;78.2
78455;SHT31;67751;51.986;5.696;2023-08-12T04:07:44;22.4;78.2
78455;SHT31;67751;51.986;5.696;2023-08-12T04:10:13;22.4;77.9
78455;SHT31;67751;51.986;5.696;2023-08-12T04:12:44;22.4;78.3
78455;SHT31;67751;51.986;5.696;2023-08-12T04:15:13;22.4;78.4
78455;SHT31;67751;51.986;5.696;2023-08-12T04:17:43;22.4;78.4
78455;SHT31;67751;51.986;5.696;2023-08-12T04:20:13;22.4;78.5
78455;SHT31;67751;51.986;5.696;2023-08-12T04:22:42;22.4;78.4
78455;SHT31;67751;51.986;5.696;2023-08-12T04:25:12;22.4;78.6
78455;SHT31;67751;51.986;5.696;2023-08-12T04:27:41;22.4;78.6
78455;SHT31;67751;51.986;5.696;2023-08-12T04:30:12;22.4;78.5
78455;SHT31;67751;51.986;5.696;2023-08-12T04:32:41;22.4;78.6
78455;SHT31;67751;51.986;5.696;2023-08-12T04:35:11;22.4;78.5
78455;SHT31;67751;51.986;5.696;2023-08-12T04:37:41;22.4;78.7
78455;SHT31;67751;51.986;5.696;2023-08-12T04:40:11;22.4;78.7
78455;SHT31;67751;51.986;5.696;2023-08-12T04:42:40;22.4;78.8
78455;SHT31;67751;51.986;5.696;2023-08-12T04:45:12;22.4;78.8
78455;SHT31;67751;51.986;5.696;2023-08-12T04:47:42;22.4;78.7
78455;SHT31;67751;51.986;5.696;2023-08-12T04:50:13;22.4;78.8
78455;SHT31;67751;51.986;5.696;2023-08-12T04:52:43;22.4;78.8
78455;SHT31;67751;51.986;5.696;2023-08-12T04:55:13;22.4;78.8
78455;SHT31;67751;51.986;5.696;2023-08-12T04:57:44;22.4;78.7
78455;SHT31;67751;51.986;5.696;2023-08-12T05:00:14;22.4;78.9
78455;SHT31;67751;51.986;5.696;2023-08-12T05:02:45;22.4;78.9
78455;SHT31;67751;51.986;5.696;2023-08-12T05:05:15;22.4;79.1
78455;SHT31;67751;51.986;5.696;2023-08-12T05:07:45;22.4;79.2
78455;SHT31;67751;51.986;5.696;2023-08-12T05:10:16;22.4;79.1
78455;SHT31;67751;51.986;5.696;2023-08-12T05:12:46;22.4;79.1
78455;SHT31;67751;51.986;5.696;2023-08-12T05:15:17;22.4;79.2
78455;SHT31;67751;51.986;5.696;2023-08-12T05:17:47;22.4;79.1
78455;SHT31;67751;51.986;5.696;2023-08-12T05:20:17;22.4;78.9
78455;SHT31;67751;51.986;5.696;2023-08-12T05:22:46;22.4;79.0
78455;SHT31;67751;51.986;5.696;2023-08-12T05:25:16;22.4;78.9
78455;SHT31;67751;51.986;5.696;2023-08-12T05:27:46;22.4;78.8
78455;SHT31;67751;51.986;5.696;2023-08-12T05:30:16;22.4;78.7
78455;SHT31;67751;51.986;5.696;2023-08-12T05:32:45;22.4;78.9
78455;SHT31;67751;51.986;5.696;2023-08-12T05:35:15;22.4;78.7
78455;SHT31;67751;51.986;5.696;2023-08-12T05:37:45;22.4;78.9
78455;SHT31;67751;51.986;5.696;2023-08-12T05:40:15;22.4;79.0
78455;SHT31;67751;51.986;5.696;2023-08-12T05:42:44;22.4;79.0
78455;SHT31;67751;51.986;5.696;2023-08-12T05:45:14;22.4;79.0
78455;SHT31;67751;51.986;5.696;2023-08-12T05:47:43;22.4;79.1
78455;SHT31;67751;51.986;5.696;2023-08-12T05:50:13;22.3;79.1
78455;SHT31;67751;51.986;5.696;2023-08-12T05:52:43;22.3;79.1
78455;SHT31;67751;51.986;5.696;2023-08-12T05:55:13;22.3;79.0
78455;SHT31;67751;51.986;5.696;2023-08-12T05:57:42;22.3;78.9
78455;SHT31;67751;51.986;5.696;2023-08-12T06:00:12;22.3;79.0
78455;SHT31;67751;51.986;5.696;2023-08-12T06:02:42;22.3;78.9
78455;SHT31;67751;51.986;5.696;2023-08-12T06:05:12;22.3;79.2
78455;SHT31;67751;51.986;5.696;2023-08-12T06:07:41;22.3;79.2
78455;SHT31;67751;51.986;5.696;2023-08-12T06:10:11;22.3;79.3
78455;SHT31;67751;51.986;5.696;2023-08-12T06:12:43;22.3;79.2
78455;SHT31;67751;51.986;5.696;2023-08-12T06:15:12;22.3;79.2
78455;SHT31;67751;51.986;5.696;2023-08-12T06:17:42;22.2;79.1
78455;SHT31;67751;51.986;5.696;2023-08-12T06:20:12;22.2;79.3
78455;SHT31;67751;51.986;5.696;2023-08-12T06:22:42;22.2;79.2
78455;SHT31;67751;51.986;5.696;2023-08-12T06:25:11;22.2;79.2
78455;SHT31;67751;51.986;5.696;2023-08-12T06:27:41;22.2;79.0
78455;SHT31;67751;51.986;5.696;2023-08-12T06:30:11;22.2;79.0
78455;SHT31;67751;51.986;5.696;2023-08-12T06:32:41;22.2;79.0
78455;SHT31;67751;51.986;5.696;2023-08-12T06:35:13;22.2;79.0
78455;SHT31;67751;51.986;5.696;2023-08-12T06:37:42;22.2;78.7
78455;SHT31;67751;51.986;5.696;2023-08-12T06:40:12;22.2;79.0
78455;SHT31;67751;51.986;5.696;2023-08-12T06:42:42;22.2;78.9
78455;SHT31;67751;51.986;5.696;2023-08-12T06:45:14;22.1;78.9
78455;SHT31;67751;51.986;5.696;2023-08-12T06:47:44;22.1;78.9
78455;SHT31;67751;51.986;5.696;2023-08-12T06:50:13;22.1;78.8
78455;SHT31;67751;51.986;5.696;2023-08-12T06:52:43;22.1;79.0
78455;SHT31;67751;51.986;5.696;2023-08-12T06:55:12;22.1;79.1
78455;SHT31;67751;51.986;5.696;2023-08-12T06:57:42;22.1;79.1
78455;SHT31;67751;51.986;5.696;2023-08-12T07:00:12;22.1;79.1
78455;SHT31;67751;51.986;5.696;2023-08-12T07:02:42;22.1;79.3
78455;SHT31;67751;51.986;5.696;2023-08-12T07:05:12;22.1;79.1
78455;SHT31;67751;51.986;5.696;2023-08-12T07:07:41;22.1;79.1
78455;SHT31;67751;51.986;5.696;2023-08-12T07:10:12;22.1;79.3
78455;SHT31;67751;51.986;5.696;2023-08-12T07:12:43;22.1;79.3
78455;SHT31;67751;51.986;5.696;2023-08-12T07:15:13;22.1;79.3
78455;SHT31;67751;51.986;5.696;2023-08-12T07:17:43;22.1;79.3
78455;SHT31;67751;51.986;5.696;2023-08-12T07:20:12;22.1;79.4
78455;SHT31;67751;51.986;5.696;2023-08-12T07:22:42;22.1;79.4
78455;SHT31;67751;51.986;5.696;2023-08-12T07:25:12;22.1;79.5
78455;SHT31;67751;51.986;5.696;2023-08-12T07:27:41;22.1;79.5
78455;SHT31;67751;51.986;5.696;2023-08-12T07:30:11;22.1;79.6
78455;SHT31;67751;51.986;5.696;2023-08-12T07:32:41;22.1;79.7
78455;SHT31;67751;51.986;5.696;2023-08-12T07:35:11;22.1;79.7
78455;SHT31;67751;51.986;5.696;2023-08-12T07:37:41;22.1;79.7
78455;SHT31;67751;51.986;5.696;2023-08-12T07:40:11;22.1;79.5
78455;SHT31;67751;51.986;5.696;2023-08-12T07:42:42;22.1;79.7
78455;SHT31;67751;51.986;5.696;2023-08-12T07:45:11;22.1;79.6
78455;SHT31;67751;51.986;5.696;2023-08-12T07:47:43;22.1;79.6
78455;SHT31;67751;51.986;5.696;2023-08-12T07:50:14;22.1;79.7
78455;SHT31;67751;51.986;5.696;2023-08-12T07:52:44;22.1;79.8
78455;SHT31;67751;51.986;5.696;2023-08-12T07:55:14;22.0;79.8
78455;SHT31;67751;51.986;5.696;2023-08-12T07:57:44;22.0;79.7
78455;SHT31;67751;51.986;5.696;2023-08-12T08:00:15;22.0;79.9
78455;SHT31;67751;51.986;5.696;2023-08-12T08:02:44;22.0;79.9
78455;SHT31;67751;51.986;5.696;2023-08-12T08:05:16;22.0;79.8
78455;SHT31;67751;51.986;5.696;2023-08-12T08:07:46;22.0;79.7
78455;SHT31;67751;51.986;5.696;2023-08-12T08:10:17;22.0;79.6
78455;SHT31;67751;51.986;5.696;2023-08-12T08:12:47;22.0;79.7
78455;SHT31;67751;51.986;5.696;2023-08-12T08:15:17;22.0;79.7
78455;SHT31;67751;51.986;5.696;2023-08-12T08:17:46;22.0;79.8
78455;SHT31;67751;51.986;5.696;2023-08-12T08:20:16;22.0;79.8
78455;SHT31;67751;51.986;5.696;2023-08-12T08:22:46;22.0;79.7
78455;SHT31;67751;51.986;5.696;2023-08-12T08:25:15;22.0;79.7
78455;SHT31;67751;51.986;5.696;2023-08-12T08:27:45;22.0;79.8
78455;SHT31;67751;51.986;5.696;2023-08-12T08:30:15;22.0;79.9
78455;SHT31;67751;51.986;5.696;2023-08-12T08:32:44;22.0;79.9
78455;SHT31;67751;51.986;5.696;2023-08-12T08:35:15;22.0;79.9
78455;SHT31;67751;51.986;5.696;2023-08-12T08:37:45;22.0;79.9
78455;SHT31;67751;51.986;5.696;2023-08-12T08:40:14;22.1;80.1
78455;SHT31;67751;51.986;5.696;2023-08-12T08:42:47;22.1;80.1
78455;SHT31;67751;51.986;5.696;2023-08-12T08:45:22;22.1;80.2
78455;SHT31;67751;51.986;5.696;2023-08-12T08:47:52;22.1;80.1
78455;SHT31;67751;51.986;5.696;2023-08-12T08:50:23;22.1;80.2
78455;SHT31;67751;51.986;5.696;2023-08-12T08:52:56;22.1;80.3
78455;SHT31;67751;51.986;5.696;2023-08-12T08:55:25;22.1;80.4
78455;SHT31;67751;51.986;5.696;2023-08-12T08:57:58;22.1;80.3
78455;SHT31;67751;51.986;5.696;2023-08-12T09:00:30;22.1;80.5
78455;SHT31;67751;51.986;5.696;2023-08-12T09:03:01;22.1;80.4
78455;SHT31;67751;51.986;5.696;2023-08-12T09:05:32;22.1;80.6
78455;SHT31;67751;51.986;5.696;2023-08-12T09:08:04;22.1;80.7
78455;SHT31;67751;51.986;5.696;2023-08-12T09:10:38;22.1;80.8
78455;SHT31;67751;51.986;5.696;2023-08-12T09:13:09;22.1;81.0
78455;SHT31;67751;51.986;5.696;2023-08-12T09:15:39;22.1;81.0
78455;SHT31;67751;51.986;5.696;2023-08-12T09:18:09;22.0;81.0
78455;SHT31;67751;51.986;5.696;2023-08-12T09:20:39;22.0;80.9
78455;SHT31;67751;51.986;5.696;2023-08-12T09:23:09;22.0;81.1
78455;SHT31;67751;51.986;5.696;2023-08-12T09:25:43;22.0;81.3
78455;SHT31;67751;51.986;5.696;2023-08-12T09:28:13;22.0;81.6
78455;SHT31;67751;51.986;5.696;2023-08-12T09:30:51;22.0;81.9
78455;SHT31;67751;51.986;5.696;2023-08-12T09:33:25;22.0;82.1
78455;SHT31;67751;51.986;5.696;2023-08-12T09:35:55;22.0;82.2
78455;SHT31;67751;51.986;5.696;2023-08-12T09:38:28;22.0;82.4
78455;SHT31;67751;51.986;5.696;2023-08-12T09:40:59;22.0;82.4
78455;SHT31;67751;51.986;5.696;2023-08-12T09:43:29;22.0;82.4
78455;SHT31;67751;51.986;5.696;2023-08-12T09:45:59;22.1;82.4
78455;SHT31;67751;51.986;5.696;2023-08-12T09:48:29;22.1;82.6
78455;SHT31;67751;51.986;5.696;2023-08-12T09:50:59;22.1;82.8
78455;SHT31;67751;51.986;5.696;2023-08-12T09:53:30;22.1;82.9
78455;SHT31;67751;51.986;5.696;2023-08-12T09:56:05;22.1;82.8
78455;SHT31;67751;51.986;5.696;2023-08-12T09:58:36;22.2;82.8
78455;SHT31;67751;51.986;5.696;2023-08-12T10:01:10;22.2;83.0
78455;SHT31;67751;51.986;5.696;2023-08-12T10:03:41;22.2;82.4
78455;SHT31;67751;51.986;5.696;2023-08-12T10:06:13;22.2;82.2
78455;SHT31;67751;51.986;5.696;2023-08-12T10:08:46;22.2;81.2
78455;SHT31;67751;51.986;5.696;2023-08-12T10:11:16;22.2;80.8
78455;SHT31;67751;51.986;5.696;2023-08-12T10:13:47;22.2;80.9
78455;SHT31;67751;51.986;5.696;2023-08-12T10:16:17;22.2;80.2
78455;SHT31;67751;51.986;5.696;2023-08-12T10:18:48;22.2;79.9
78455;SHT31;67751;51.986;5.696;2023-08-12T10:21:18;22.2;78.2
78455;SHT31;67751;51.986;5.696;2023-08-12T10:23:50;22.2;77.1
78455;SHT31;67751;51.986;5.696;2023-08-12T10:26:20;22.1;76.8
78455;SHT31;67751;51.986;5.696;2023-08-12T10:28:51;22.0;77.3
78455;SHT31;67751;51.986;5.696;2023-08-12T10:31:21;22.0;76.9
78455;SHT31;67751;51.986;5.696;2023-08-12T10:33:51;21.9;77.5
78455;SHT31;67751;51.986;5.696;2023-08-12T10:36:21;21.9;77.6
78455;SHT31;67751;51.986;5.696;2023-08-12T10:38:53;21.8;77.7
78455;SHT31;67751;51.986;5.696;2023-08-12T10:41:24;21.8;79.1
78455;SHT31;67751;51.986;5.696;2023-08-12T10:43:59;21.8;78.7
78455;SHT31;67751;51.986;5.696;2023-08-12T10:46:32;21.8;79.7
78455;SHT31;67751;51.986;5.696;2023-08-12T10:49:08;21.8;80.4
78455;SHT31;67751;51.986;5.696;2023-08-12T10:51:41;21.8;80.1
78455;SHT31;67751;51.986;5.696;2023-08-12T10:54:17;21.8;78.2
78455;SHT31;67751;51.986;5.696;2023-08-12T10:57:06;21.7;78.1
78455;SHT31;67751;51.986;5.696;2023-08-12T10:59:52;21.7;79.0
78455;SHT31;67751;51.986;5.696;2023-08-12T11:02:26;21.7;79.4
78455;SHT31;67751;51.986;5.696;2023-08-12T11:05:00;21.8;79.9
78455;SHT31;67751;51.986;5.696;2023-08-12T11:07:33;21.8;80.4
78455;SHT31;67751;51.986;5.696;2023-08-12T11:10:14;21.8;80.0
78455;SHT31;67751;51.986;5.696;2023-08-12T11:12:48;21.8;79.3
78455;SHT31;67751;51.986;5.696;2023-08-12T11:15:32;21.8;79.2
78455;SHT31;67751;51.986;5.696;2023-08-12T11:18:05;21.9;78.5
78455;SHT31;67751;51.986;5.696;2023-08-12T11:20:36;21.9;78.3
78455;SHT31;67751;51.986;5.696;2023-08-12T11:23:08;21.9;79.2
78455;SHT31;67751;51.986;5.696;2023-08-12T11:25:40;21.9;79.3
78455;SHT31;67751;51.986;5.696;2023-08-12T11:28:10;21.9;79.4
78455;SHT31;67751;51.986;5.696;2023-08-12T11:30:42;21.9;78.6
78455;SHT31;67751;51.986;5.696;2023-08-12T11:33:12;22.0;77.8
78455;SHT31;67751;51.986;5.696;2023-08-12T11:35:46;22.0;78.5
78455;SHT31;67751;51.986;5.696;2023-08-12T11:38:16;22.0;78.9
78455;SHT31;67751;51.986;5.696;2023-08-12T11:40:46;22.0;74.8
78455;SHT31;67751;51.986;5.696;2023-08-12T11:43:15;22.0;76.7
78455;SHT31;67751;51.986;5.696;2023-08-12T11:45:45;22.0;77.3
78455;SHT31;67751;51.986;5.696;2023-08-12T11:48:16;22.0;76.6
78455;SHT31;67751;51.986;5.696;2023-08-12T11:50:47;22.0;76.5
78455;SHT31;67751;51.986;5.696;2023-08-12T11:53:17;22.0;76.5
78455;SHT31;67751;51.986;5.696;2023-08-12T11:55:49;22.0;77.4
78455;SHT31;67751;51.986;5.696;2023-08-12T11:58:19;22.0;75.0
78455;SHT31;67751;51.986;5.696;2023-08-12T12:00:50;22.0;76.6
78455;SHT31;67751;51.986;5.696;2023-08-12T12:03:20;22.0;77.2
78455;SHT31;67751;51.986;5.696;2023-08-12T12:05:57;22.0;76.9
78455;SHT31;67751;51.986;5.696;2023-08-12T12:08:26;22.0;75.9
78455;SHT31;67751;51.986;5.696;2023-08-12T12:11:06;22.1;76.4
78455;SHT31;67751;51.986;5.696;2023-08-12T12:13:36;22.1;74.2
78455;SHT31;67751;51.986;5.696;2023-08-12T12:16:10;22.1;75.9
78455;SHT31;67751;51.986;5.696;2023-08-12T12:18:42;22.1;75.9
78455;SHT31;67751;51.986;5.696;2023-08-12T12:21:15;22.1;77.4
78455;SHT31;67751;51.986;5.696;2023-08-12T12:23:50;22.1;70.1
78455;SHT31;67751;51.986;5.696;2023-08-12T12:26:22;22.1;74.2
78455;SHT31;67751;51.986;5.696;2023-08-12T12:28:52;22.1;73.8
78455;SHT31;67751;51.986;5.696;2023-08-12T12:31:21;22.1;74.3
78455;SHT31;67751;51.986;5.696;2023-08-12T12:33:51;22.1;75.2
78455;SHT31;67751;51.986;5.696;2023-08-12T12:36:21;22.2;75.2
78455;SHT31;67751;51.986;5.696;2023-08-12T12:38:51;22.2;75.9
78455;SHT31;67751;51.986;5.696;2023-08-12T12:41:22;22.2;75.2
78455;SHT31;67751;51.986;5.696;2023-08-12T12:43:54;22.2;73.6
78455;SHT31;67751;51.986;5.696;2023-08-12T12:46:24;22.2;73.9
78455;SHT31;67751;51.986;5.696;2023-08-12T12:48:54;22.2;74.4
78455;SHT31;67751;51.986;5.696;2023-08-12T12:51:23;22.2;72.7
78455;SHT31;67751;51.986;5.696;2023-08-12T12:53:53;22.1;72.9
78455;SHT31;67751;51.986;5.696;2023-08-12T12:56:23;22.1;72.5
78455;SHT31;67751;51.986;5.696;2023-08-12T12:58:54;22.1;72.1
78455;SHT31;67751;51.986;5.696;2023-08-12T13:01:24;22.1;73.1
78455;SHT31;67751;51.986;5.696;2023-08-12T13:03:53;22.1;73.9
78455;SHT31;67751;51.986;5.696;2023-08-12T13:06:23;22.1;74.0
78455;SHT31;67751;51.986;5.696;2023-08-12T13:08:53;22.1;73.8
78455;SHT31;67751;51.986;5.696;2023-08-12T13:11:22;22.1;73.5
78455;SHT31;67751;51.986;5.696;2023-08-12T13:13:52;22.1;74.2
78455;SHT31;67751;51.986;5.696;2023-08-12T13:16:22;22.2;73.3
78455;SHT31;67751;51.986;5.696;2023-08-12T13:18:52;22.2;73.3
78455;SHT31;67751;51.986;5.696;2023-08-12T13:21:21;22.2;73.8
78455;SHT31;67751;51.986;5.696;2023-08-12T13:23:51;22.2;73.9
78455;SHT31;67751;51.986;5.696;2023-08-12T13:26:21;22.3;71.9
78455;SHT31;67751;51.986;5.696;2023-08-12T13:28:53;22.3;73.8
78455;SHT31;67751;51.986;5.696;2023-08-12T13:31:22;22.3;72.4
78455;SHT31;67751;51.986;5.696;2023-08-12T13:33:53;22.4;66.4
78455;SHT31;67751;51.986;5.696;2023-08-12T13:36:23;22.4;70.8
78455;SHT31;67751;51.986;5.696;2023-08-12T13:38:52;22.5;70.8
78455;SHT31;67751;51.986;5.696;2023-08-12T13:41:22;22.5;69.0
78455;SHT31;67751;51.986;5.696;2023-08-12T13:43:51;22.5;70.7
78455;SHT31;67751;51.986;5.696;2023-08-12T13:46:21;22.5;70.6
78455;SHT31;67751;51.986;5.696;2023-08-12T13:48:50;22.6;67.7
78455;SHT31;67751;51.986;5.696;2023-08-12T13:51:20;22.6;68.8
78455;SHT31;67751;51.986;5.696;2023-08-12T13:53:50;22.6;69.4
78455;SHT31;67751;51.986;5.696;2023-08-12T13:56:19;22.6;68.2
78455;SHT31;67751;51.986;5.696;2023-08-12T13:58:50;22.6;65.1
78455;SHT31;67751;51.986;5.696;2023-08-12T14:01:20;22.7;67.2
78455;SHT31;67751;51.986;5.696;2023-08-12T14:03:50;22.7;68.9
78455;SHT31;67751;51.986;5.696;2023-08-12T14:06:20;22.7;67.3
78455;SHT31;67751;51.986;5.696;2023-08-12T14:08:50;22.7;66.4
78455;SHT31;67751;51.986;5.696;2023-08-12T14:11:20;22.7;67.5
78455;SHT31;67751;51.986;5.696;2023-08-12T14:13:49;22.7;66.8
78455;SHT31;67751;51.986;5.696;2023-08-12T14:16:21;22.7;65.2
78455;SHT31;67751;51.986;5.696;2023-08-12T14:18:51;22.7;64.6
78455;SHT31;67751;51.986;5.696;2023-08-12T14:21:20;22.7;62.9
78455;SHT31;67751;51.986;5.696;2023-08-12T14:23:50;22.7;64.1
78455;SHT31;67751;51.986;5.696;2023-08-12T14:26:19;22.7;62.6
78455;SHT31;67751;51.986;5.696;2023-08-12T14:28:49;22.7;64.1
78455;SHT31;67751;51.986;5.696;2023-08-12T14:31:19;22.7;65.2
78455;SHT31;67751;51.986;5.696;2023-08-12T14:33:50;22.7;64.9
78455;SHT31;67751;51.986;5.696;2023-08-12T14:36:20;22.6;63.1
78455;SHT31;67751;51.986;5.696;2023-08-12T14:38:50;22.6;63.2
78455;SHT31;67751;51.986;5.696;2023-08-12T14:41:20;22.6;60.4
78455;SHT31;67751;51.986;5.696;2023-08-12T14:43:49;22.6;62.7
78455;SHT31;67751;51.986;5.696;2023-08-12T14:46:19;22.6;63.1
78455;SHT31;67751;51.986;5.696;2023-08-12T14:48:48;22.6;63.2
78455;SHT31;67751;51.986;5.696;2023-08-12T14:51:20;22.6;62.3
78455;SHT31;67751;51.986;5.696;2023-08-12T14:53:50;22.6;63.4
78455;SHT31;67751;51.986;5.696;2023-08-12T14:56:22;22.6;63.0
78455;SHT31;67751;51.986;5.696;2023-08-12T14:58:52;22.6;64.5
78455;SHT31;67751;51.986;5.696;2023-08-12T15:01:21;22.6;62.8
78455;SHT31;67751;51.986;5.696;2023-08-12T15:03:52;22.6;64.0
78455;SHT31;67751;51.986;5.696;2023-08-12T15:06:22;22.6;61.7
78455;SHT31;67751;51.986;5.696;2023-08-12T15:08:51;22.7;62.2
78455;SHT31;67751;51.986;5.696;2023-08-12T15:11:21;22.7;62.0
78455;SHT31;67751;51.986;5.696;2023-08-12T15:13:52;22.7;63.3
78455;SHT31;67751;51.986;5.696;2023-08-12T15:16:22;22.7;62.1
78455;SHT31;67751;51.986;5.696;2023-08-12T15:18:52;22.7;62.6
78455;SHT31;67751;51.986;5.696;2023-08-12T15:21:21;22.7;62.7
78455;SHT31;67751;51.986;5.696;2023-08-12T15:23:51;22.7;61.4
78455;SHT31;67751;51.986;5.696;2023-08-12T15:26:21;22.7;61.0
78455;SHT31;67751;51.986;5.696;2023-08-12T15:28:51;22.7;59.6
78455;SHT31;67751;51.986;5.696;2023-08-12T15:31:21;22.7;59.8
78455;SHT31;67751;51.986;5.696;2023-08-12T15:33:50;22.7;60.0
78455;SHT31;67751;51.986;5.696;2023-08-12T15:36:20;22.7;60.5
78455;SHT31;67751;51.986;5.696;2023-08-12T15:38:52;22.8;59.6
78455;SHT31;67751;51.986;5.696;2023-08-12T15:41:21;22.8;59.3
78455;SHT31;67751;51.986;5.696;2023-08-12T15:43:51;22.8;61.9
78455;SHT31;67751;51.986;5.696;2023-08-12T15:46:21;22.8;61.2
78455;SHT31;67751;51.986;5.696;2023-08-12T15:48:50;22.8;62.2
78455;SHT31;67751;51.986;5.696;2023-08-12T15:51:20;22.8;62.3
78455;SHT31;67751;51.986;5.696;2023-08-12T15:53:49;22.8;61.5
78455;SHT31;67751;51.986;5.696;2023-08-12T15:56:19;22.8;61.5
78455;SHT31;67751;51.986;5.696;2023-08-12T15:58:48;22.8;62.3
78455;SHT31;67751;51.986;5.696;2023-08-12T16:01:21;22.8;63.8
78455;SHT31;67751;51.986;5.696;2023-08-12T16:03:50;22.7;64.8
78455;SHT31;67751;51.986;5.696;2023-08-12T16:06:22;22.7;64.5
78455;SHT31;67751;51.986;5.696;2023-08-12T16:08:52;22.7;64.4
78455;SHT31;67751;51.986;5.696;2023-08-12T16:11:22;22.7;62.8
78455;SHT31;67751;51.986;5.696;2023-08-12T16:13:52;22.7;63.7
78455;SHT31;67751;51.986;5.696;2023-08-12T16:16:22;22.7;63.9
78455;SHT31;67751;51.986;5.696;2023-08-12T16:18:51;22.7;64.0
78455;SHT31;67751;51.986;5.696;2023-08-12T16:21:21;22.7;64.0
78455;SHT31;67751;51.986;5.696;2023-08-12T16:23:52;22.7;64.6